This is the latest recevied weather packets stored in our database for station/object VA6NA. If no packets are shown the sender has not sent any weather packets the latest 10 day(s).
| Time | Temp. | Humidity | Pressure | Rain* | Wind** | Luminosity | Snow |
|---|---|---|---|---|---|---|---|
| 1778233820 | 10.56° C | 61% | 1012 hPa | 0 mm | - | - | - |
| 1778231425 | 10.56° C | 60% | 1012.2 hPa | 0 mm | - | - | - |
| 1778230222 | 10.56° C | 61% | 1012.1 hPa | 0 mm | - | - | - |
| 1778229018 | 8.89° C | 64% | 1012.1 hPa | 0 mm | - | - | - |
| 1778227820 | 8.89° C | 64% | 1012.2 hPa | 0 mm | - | - | - |
| 1778220039 | 11.11° C | 57% | 1012.1 hPa | 0 mm | - | - | - |
| 1778218821 | 11.67° C | 55% | 1012.2 hPa | 0 mm | - | - | - |
| 1778218216 | 11.67° C | 55% | 1012.1 hPa | 0 mm | - | - | - |
| 1778216431 | 12.78° C | 52% | 1012.1 hPa | 0 mm | - | - | - |
| 1778205648 | 22.22° C | 32% | 1011.2 hPa | 0 mm | - | - | - |
| 1778204424 | 22.22° C | 32% | 1011.2 hPa | 0 mm | - | - | - |
| 1778197226 | 23.89° C | 32% | 1011.1 hPa | 0 mm | - | - | - |
| 1778196037 | 23.33° C | 33% | 1011 hPa | 0 mm | - | - | - |
| 1778194831 | 22.78° C | 33% | 1011.1 hPa | 0 mm | - | - | - |
| 1778194232 | 22.78° C | 33% | 1011.2 hPa | 0 mm | - | - | - |
| 1778193036 | 23.89° C | 33% | 1011.2 hPa | 0 mm | - | - | - |
| 1778191219 | 22.78° C | 34% | 1011.6 hPa | 0 mm | - | - | - |
| 1778190619 | 22.78° C | 34% | 1011.6 hPa | 0 mm | - | - | - |
| 1778190027 | 22.78° C | 34% | 1011.6 hPa | 0 mm | - | - | - |
| 1778186427 | 23.33° C | 35% | 1012.1 hPa | 0 mm | - | - | - |
| 1778183420 | 21.11° C | 37% | 1012 hPa | 0 mm | - | - | - |
| 1778180430 | 21.67° C | 37% | 1012.2 hPa | 0 mm | - | - | - |
| 1778176818 | 20.56° C | 39% | 1012.5 hPa | 0 mm | - | - | - |
| 1778175626 | 20.56° C | 39% | 1012.5 hPa | 0 mm | - | - | - |
| 1778173233 | 19.44° C | 41% | 1012.4 hPa | 0 mm | - | - | - |
* Rain latest hour (hover to see other rain measurements)
** Current wind speed in m/s (hover to see current wind gust speed)